createdAt,value
2022-09-06T00:00:18.621Z,75.45
2022-09-06T00:02:46.088Z,76.03
2022-09-06T00:05:14.210Z,76.00
2022-09-06T00:07:41.777Z,75.35
2022-09-06T00:10:09.675Z,75.23
2022-09-06T00:12:37.658Z,75.51
2022-09-06T00:15:06.124Z,76.14
2022-09-06T00:17:33.825Z,75.99
2022-09-06T00:20:01.056Z,76.28
2022-09-06T00:22:28.157Z,77.21
2022-09-06T00:24:55.108Z,77.95
2022-09-06T00:27:22.535Z,78.42
2022-09-06T00:29:49.590Z,78.81
2022-09-06T00:32:16.705Z,78.03
2022-09-06T00:34:43.646Z,78.49
2022-09-06T00:37:10.714Z,78.93
2022-09-06T00:39:37.769Z,79.52
2022-09-06T00:42:09.530Z,80.65
2022-09-06T00:44:37.116Z,81.75
2022-09-06T00:47:05.626Z,83.37
2022-09-06T00:49:40.340Z,83.65
2022-09-06T00:52:11.306Z,84.70
2022-09-06T00:54:39.504Z,85.43
2022-09-06T00:57:07.139Z,84.76
2022-09-06T00:59:37.780Z,85.07
2022-09-06T01:02:05.869Z,85.65
2022-09-06T01:04:33.610Z,86.27
2022-09-06T01:07:15.694Z,87.04
2022-09-06T01:09:45.583Z,86.91
2022-09-06T01:12:18.796Z,87.42
2022-09-06T01:14:51.806Z,86.45
2022-09-06T01:17:40.316Z,85.93
2022-09-06T01:20:34.953Z,86.41
2022-09-06T01:23:46.884Z,86.68
2022-09-06T01:26:16.968Z,86.82
2022-09-06T01:28:48.192Z,87.09
2022-09-06T01:31:44.667Z,87.70
2022-09-06T01:34:16.475Z,89.27
2022-09-06T01:37:09.795Z,90.85
2022-09-06T01:39:39.115Z,91.75
2022-09-06T01:42:21.307Z,92.37
2022-09-06T01:44:54.659Z,93.04
2022-09-06T01:47:24.569Z,93.91
2022-09-06T01:50:33.708Z,93.06
2022-09-06T01:53:11.114Z,93.48
2022-09-06T01:56:00.513Z,94.75
2022-09-06T01:58:51.617Z,94.94
2022-09-06T02:01:37.940Z,94.93
2022-09-06T02:04:30.139Z,93.87
2022-09-06T02:07:28.449Z,94.01
2022-09-06T02:10:06.724Z,94.90
2022-09-06T02:12:37.309Z,96.71
2022-09-06T02:15:13.862Z,98.55
2022-09-06T02:17:47.515Z,98.37
2022-09-06T02:20:23.131Z,100.00
2022-09-06T02:22:54.011Z,100.00
2022-09-06T02:25:30.150Z,100.00
2022-09-06T02:27:57.402Z,100.00
2022-09-06T02:30:24.747Z,100.00
2022-09-06T02:33:03.000Z,100.00
2022-09-06T02:35:30.679Z,100.00
2022-09-06T02:37:57.824Z,100.00
2022-09-06T02:40:25.136Z,100.00
2022-09-06T02:42:53.672Z,99.63
2022-09-06T02:45:20.643Z,99.64
2022-09-06T02:47:47.656Z,100.00
2022-09-06T02:50:15.506Z,100.00
2022-09-06T02:52:42.802Z,100.00
2022-09-06T02:55:11.376Z,100.00
2022-09-06T02:57:38.528Z,100.00
2022-09-06T03:00:06.048Z,100.00
2022-09-06T03:02:33.186Z,100.00
2022-09-06T03:05:00.319Z,100.00
2022-09-06T03:07:27.307Z,100.00
2022-09-06T03:09:54.411Z,100.00
2022-09-06T03:12:21.460Z,100.00
2022-09-06T03:14:51.915Z,100.00
2022-09-06T03:17:21.402Z,100.00
2022-09-06T03:19:48.370Z,100.00
2022-09-06T03:22:15.497Z,100.00
2022-09-06T03:24:42.635Z,100.00
2022-09-06T03:27:09.626Z,100.00
2022-09-06T03:29:36.699Z,100.00
2022-09-06T03:32:03.829Z,100.00
2022-09-06T03:34:30.806Z,100.00
2022-09-06T03:36:57.818Z,100.00
2022-09-06T03:39:24.891Z,100.00
2022-09-06T03:41:52.063Z,100.00
2022-09-06T03:44:19.147Z,100.00
2022-09-06T03:46:46.533Z,100.00
2022-09-06T03:49:13.599Z,100.00
2022-09-06T03:51:40.614Z,100.00
2022-09-06T03:54:07.646Z,100.00
2022-09-06T03:56:34.842Z,100.00
2022-09-06T03:59:01.908Z,100.00
2022-09-06T04:01:29.402Z,100.00
2022-09-06T04:03:56.449Z,100.00
2022-09-06T04:06:23.901Z,100.00
2022-09-06T04:08:50.929Z,100.00
2022-09-06T04:11:18.030Z,100.00
2022-09-06T04:13:45.163Z,100.00
2022-09-06T04:16:12.241Z,100.00
2022-09-06T04:18:39.348Z,100.00
2022-09-06T04:21:06.597Z,100.00
2022-09-06T04:23:39.166Z,100.00
2022-09-06T04:26:07.094Z,100.00
2022-09-06T04:28:34.183Z,100.00
2022-09-06T04:31:04.990Z,100.00
2022-09-06T04:33:34.549Z,100.00
2022-09-06T04:36:03.614Z,100.00
2022-09-06T04:38:34.957Z,100.00
2022-09-06T04:41:02.242Z,100.00
2022-09-06T04:43:29.193Z,100.00
2022-09-06T04:45:56.283Z,100.00
2022-09-06T04:48:23.426Z,100.00
2022-09-06T04:50:50.581Z,100.00
2022-09-06T04:53:17.586Z,100.00
2022-09-06T04:55:44.714Z,100.00
2022-09-06T04:58:11.806Z,100.00
2022-09-06T05:00:39.870Z,100.00
2022-09-06T05:03:06.899Z,100.00
2022-09-06T05:05:33.959Z,100.00
2022-09-06T05:08:01.095Z,100.00
2022-09-06T05:10:28.233Z,100.00
2022-09-06T05:12:55.473Z,100.00
2022-09-06T05:15:28.346Z,100.00
2022-09-06T05:18:03.404Z,100.00
2022-09-06T05:20:31.418Z,100.00
2022-09-06T05:22:58.421Z,100.00
2022-09-06T05:25:25.549Z,100.00
2022-09-06T05:27:52.659Z,100.00
2022-09-06T05:30:19.980Z,100.00
2022-09-06T05:32:47.042Z,100.00
2022-09-06T05:35:14.155Z,100.00
2022-09-06T05:37:41.263Z,100.00
2022-09-06T05:40:09.092Z,100.00
2022-09-06T05:42:36.217Z,100.00
2022-09-06T05:45:03.463Z,100.00
2022-09-06T05:47:34.576Z,100.00
2022-09-06T05:50:02.517Z,100.00
2022-09-06T05:52:30.389Z,100.00
2022-09-06T05:54:57.390Z,100.00
2022-09-06T05:57:24.749Z,100.00
2022-09-06T05:59:53.655Z,100.00
2022-09-06T06:02:21.968Z,100.00
2022-09-06T06:04:49.662Z,100.00
2022-09-06T06:07:16.661Z,99.91
2022-09-06T06:09:44.126Z,100.00
2022-09-06T06:12:11.187Z,100.00
2022-09-06T06:14:38.355Z,100.00
2022-09-06T06:17:05.426Z,99.14
2022-09-06T06:19:32.576Z,98.97
2022-09-06T06:21:59.701Z,94.19
2022-09-06T06:24:27.335Z,92.68
2022-09-06T06:26:54.611Z,92.44
2022-09-06T06:29:21.758Z,91.12
2022-09-06T06:31:48.981Z,90.88
2022-09-06T06:34:16.654Z,91.41
2022-09-06T06:36:44.478Z,89.33
2022-09-06T06:39:11.525Z,88.25
2022-09-06T06:41:38.554Z,87.69
2022-09-06T06:44:24.629Z,87.68
2022-09-06T06:46:52.326Z,86.47
2022-09-06T06:49:19.560Z,85.27
2022-09-06T06:51:47.175Z,86.47
2022-09-06T06:54:14.220Z,86.73
2022-09-06T06:56:41.405Z,85.56
2022-09-06T06:59:08.725Z,84.77
2022-09-06T07:01:37.002Z,87.12
2022-09-06T07:04:05.699Z,88.03
2022-09-06T07:12:21.218Z,80.67
2022-09-06T07:14:48.181Z,81.23
2022-09-06T07:17:15.311Z,81.38
2022-09-06T07:22:29.310Z,79.28
2022-09-06T07:24:56.274Z,78.14
2022-09-06T07:30:11.227Z,78.13
2022-09-06T07:32:38.350Z,76.71
2022-09-06T07:35:05.865Z,74.64
2022-09-06T07:37:32.841Z,73.49
2022-09-06T07:40:00.784Z,73.06
2022-09-06T07:42:27.882Z,74.21
2022-09-06T07:44:57.885Z,73.15
2022-09-06T07:53:12.781Z,68.90
2022-09-06T07:55:43.067Z,68.99
2022-09-06T07:58:10.111Z,69.05
2022-09-06T08:00:38.619Z,68.86
2022-09-06T08:03:05.676Z,68.88
2022-09-06T08:11:07.878Z,67.82
2022-09-06T08:13:38.476Z,68.45
2022-09-06T08:16:08.528Z,67.75
2022-09-06T08:18:36.597Z,67.08
2022-09-06T08:21:15.064Z,63.85
2022-09-06T08:23:47.201Z,63.98
2022-09-06T08:26:15.723Z,63.43
2022-09-06T08:28:47.863Z,63.32
2022-09-06T08:31:17.420Z,62.93
2022-09-06T08:33:44.966Z,61.11
2022-09-06T08:36:12.557Z,60.58
2022-09-06T08:38:41.577Z,59.83
2022-09-06T08:41:21.311Z,60.08
2022-09-06T08:47:00.364Z,59.90
2022-09-06T08:49:30.862Z,59.76
2022-09-06T08:52:22.200Z,59.42
2022-09-06T08:54:55.615Z,58.46
2022-09-06T08:57:49.623Z,56.98
2022-09-06T09:00:17.596Z,56.78
2022-09-06T09:02:49.161Z,57.65
2022-09-06T09:05:27.641Z,56.95
2022-09-06T09:08:05.825Z,56.59
2022-09-06T09:11:06.823Z,58.38
2022-09-06T09:13:50.889Z,57.67
2022-09-06T09:16:18.735Z,54.00
2022-09-06T09:18:49.508Z,55.00
2022-09-06T09:21:20.408Z,53.69
2022-09-06T09:23:53.422Z,53.49
2022-09-06T09:26:22.599Z,53.01
2022-09-06T09:29:04.068Z,51.95
2022-09-06T09:31:43.122Z,51.61
2022-09-06T09:34:29.627Z,50.79
2022-09-06T09:40:01.040Z,50.03
2022-09-06T09:42:37.942Z,50.28
2022-09-06T09:45:25.289Z,48.25
2022-09-06T09:47:52.422Z,48.67
2022-09-06T09:50:32.021Z,49.26
2022-09-06T09:53:11.330Z,49.03
2022-09-06T09:55:39.357Z,48.08
2022-09-06T09:58:17.338Z,47.92
2022-09-06T10:00:44.542Z,48.14
2022-09-06T10:03:29.768Z,47.15
2022-09-06T10:06:02.746Z,47.45
2022-09-06T10:08:34.193Z,47.13
2022-09-06T10:11:01.340Z,47.82
2022-09-06T10:13:30.822Z,47.46
2022-09-06T10:16:00.161Z,47.33
2022-09-06T10:18:33.193Z,47.30
2022-09-06T10:21:05.915Z,48.19
2022-09-06T10:26:38.638Z,46.73
2022-09-06T10:29:09.760Z,46.68
2022-09-06T10:31:55.834Z,46.62
2022-09-06T10:34:44.257Z,45.58
2022-09-06T10:37:27.238Z,46.59
2022-09-06T10:40:00.399Z,45.80
2022-09-06T10:42:54.655Z,46.39
2022-09-06T10:45:29.342Z,46.28
2022-09-06T10:48:03.072Z,46.21
2022-09-06T10:50:51.525Z,45.89
2022-09-06T10:53:39.635Z,44.48
2022-09-06T10:56:11.738Z,44.53
2022-09-06T11:02:00.501Z,43.85
2022-09-06T11:10:34.617Z,42.55
2022-09-06T11:13:18.481Z,42.70
2022-09-06T11:16:04.449Z,41.28
2022-09-06T11:19:09.930Z,40.95
2022-09-06T11:21:39.693Z,41.19
2022-09-06T11:24:15.006Z,41.10
2022-09-06T11:27:05.891Z,40.86
2022-09-06T11:29:34.938Z,39.51
2022-09-06T11:32:18.814Z,39.09
2022-09-06T11:34:58.199Z,39.02
2022-09-06T11:37:31.315Z,40.17
2022-09-06T11:40:28.826Z,39.49
2022-09-06T11:42:56.337Z,40.04
2022-09-06T11:45:43.395Z,39.49
2022-09-06T11:48:34.221Z,39.48
2022-09-06T11:51:06.936Z,38.94
2022-09-06T11:53:49.251Z,38.55
2022-09-06T11:56:43.154Z,36.45
2022-09-06T11:59:24.042Z,35.73
2022-09-06T12:02:00.271Z,35.82
2022-09-06T12:05:07.602Z,35.62
2022-09-06T12:07:36.968Z,36.03
2022-09-06T12:10:29.357Z,35.17
2022-09-06T12:12:57.008Z,35.64
2022-09-06T12:15:33.067Z,35.79
2022-09-06T12:18:00.807Z,36.13
2022-09-06T12:20:51.318Z,36.40
2022-09-06T12:23:36.504Z,35.79
2022-09-06T12:26:06.026Z,36.02
2022-09-06T12:28:49.871Z,35.80
2022-09-06T12:31:27.530Z,35.00
2022-09-06T12:33:55.478Z,34.78
2022-09-06T12:36:31.828Z,33.62
2022-09-06T12:39:10.537Z,33.18
2022-09-06T12:41:43.576Z,33.08
2022-09-06T12:44:13.252Z,32.94
2022-09-06T12:46:47.635Z,32.20
2022-09-06T12:49:22.652Z,33.21
2022-09-06T12:52:13.341Z,33.07
2022-09-06T12:54:47.474Z,33.26
2022-09-06T12:57:21.467Z,33.66
2022-09-06T12:59:51.160Z,34.22
2022-09-06T13:02:28.206Z,34.24
2022-09-06T13:05:07.768Z,34.17
2022-09-06T13:07:40.413Z,33.83
2022-09-06T13:10:08.799Z,34.08
2022-09-06T13:12:42.932Z,33.93
2022-09-06T13:15:19.696Z,33.83
2022-09-06T13:17:46.906Z,34.46
2022-09-06T13:20:22.306Z,33.88
2022-09-06T13:22:51.526Z,34.49
2022-09-06T13:25:21.265Z,34.35
2022-09-06T13:27:51.322Z,35.20
2022-09-06T13:30:40.017Z,35.15
2022-09-06T13:33:08.142Z,34.82
2022-09-06T13:35:38.218Z,33.98
2022-09-06T13:38:35.005Z,33.99
2022-09-06T13:41:13.591Z,33.24
2022-09-06T13:43:45.303Z,32.58
2022-09-06T13:46:12.506Z,33.71
2022-09-06T13:48:39.939Z,33.27
2022-09-06T13:51:08.103Z,33.13
2022-09-06T13:53:36.057Z,32.87
2022-09-06T13:56:03.311Z,32.45
2022-09-06T13:58:30.513Z,32.34
2022-09-06T14:00:58.693Z,32.59
2022-09-06T14:03:31.113Z,32.18
2022-09-06T14:06:00.475Z,32.59
2022-09-06T14:08:49.238Z,32.03
2022-09-06T14:11:17.782Z,32.16
2022-09-06T14:13:44.722Z,32.34
2022-09-06T14:16:12.955Z,30.23
2022-09-06T14:18:40.593Z,30.57
2022-09-06T14:21:07.925Z,31.77
2022-09-06T14:23:35.107Z,31.96
2022-09-06T14:26:04.637Z,32.03
2022-09-06T14:28:33.701Z,31.80
2022-09-06T14:31:23.860Z,31.75
2022-09-06T14:33:50.959Z,32.25
2022-09-06T14:36:20.618Z,31.94
2022-09-06T14:38:48.899Z,32.21
2022-09-06T14:41:17.867Z,32.75
2022-09-06T14:43:47.803Z,32.75
2022-09-06T14:46:16.358Z,32.36
2022-09-06T14:48:43.913Z,32.91
2022-09-06T14:51:22.215Z,33.11
2022-09-06T14:53:52.784Z,33.22
2022-09-06T14:56:19.942Z,33.10
2022-09-06T14:58:47.514Z,33.54
2022-09-06T15:01:18.149Z,33.50
2022-09-06T15:03:48.834Z,32.92
2022-09-06T15:06:16.750Z,34.10
2022-09-06T15:08:44.288Z,32.90
2022-09-06T15:11:12.705Z,32.67
2022-09-06T15:13:40.559Z,33.20
2022-09-06T15:28:54.163Z,33.21
2022-09-06T15:31:21.718Z,33.69
2022-09-06T15:33:50.742Z,33.26
2022-09-06T15:36:18.255Z,33.15
2022-09-06T15:38:48.220Z,33.19
2022-09-06T15:41:21.081Z,32.88
2022-09-06T15:43:50.759Z,33.09
2022-09-06T15:46:29.406Z,33.72
2022-09-06T15:48:56.391Z,33.32
2022-09-06T15:51:23.449Z,33.50
2022-09-06T15:53:50.532Z,33.06
2022-09-06T15:56:18.524Z,33.12
2022-09-06T15:58:48.817Z,33.15
2022-09-06T16:01:18.788Z,33.20
2022-09-06T16:03:48.876Z,33.57
2022-09-06T16:09:17.788Z,33.27
2022-09-06T16:11:45.084Z,33.45
2022-09-06T16:14:14.484Z,33.50
2022-09-06T16:16:43.509Z,33.32
2022-09-06T16:19:12.617Z,33.54
2022-09-06T16:21:40.349Z,33.15
2022-09-06T16:24:10.298Z,31.26
2022-09-06T16:26:42.934Z,29.39
2022-09-06T16:29:11.678Z,28.22
2022-09-06T16:31:40.645Z,27.85
2022-09-06T16:34:09.100Z,26.70
2022-09-06T16:36:36.103Z,27.20
2022-09-06T16:39:04.662Z,27.03
2022-09-06T16:41:31.526Z,27.54
2022-09-06T16:43:59.053Z,28.75
2022-09-06T16:46:28.900Z,30.00
2022-09-06T16:49:04.623Z,31.70
2022-09-06T16:51:32.215Z,34.29
2022-09-06T16:54:00.595Z,34.94
2022-09-06T16:56:33.638Z,35.56
2022-09-06T16:59:04.282Z,36.47
2022-09-06T17:01:32.589Z,39.60
2022-09-06T17:04:04.072Z,40.68
2022-09-06T17:06:32.645Z,40.93
2022-09-06T17:09:00.165Z,40.62
2022-09-06T17:11:28.387Z,40.67
2022-09-06T17:13:56.740Z,40.68
2022-09-06T17:16:43.034Z,40.82
2022-09-06T17:19:10.640Z,43.92
2022-09-06T17:21:39.321Z,42.68
2022-09-06T17:24:08.140Z,42.32
2022-09-06T17:26:37.833Z,41.60
2022-09-06T17:29:05.097Z,42.73
2022-09-06T17:31:32.170Z,42.58
2022-09-06T17:33:59.923Z,42.82
2022-09-06T17:36:32.111Z,44.68
2022-09-06T17:39:17.780Z,43.38
2022-09-06T17:41:47.262Z,45.58
2022-09-06T17:44:20.047Z,43.48
2022-09-06T17:47:09.018Z,45.21
2022-09-06T17:49:35.337Z,44.92
2022-09-06T17:52:02.504Z,46.73
2022-09-06T17:54:31.914Z,45.65
2022-09-06T17:56:59.004Z,46.01
2022-09-06T17:59:26.189Z,44.69
2022-09-06T18:01:53.194Z,45.80
2022-09-06T18:04:20.206Z,44.95
2022-09-06T18:06:47.723Z,45.15
2022-09-06T18:09:17.704Z,45.10
2022-09-06T18:11:48.525Z,44.69
2022-09-06T18:14:18.087Z,44.85
2022-09-06T18:16:47.477Z,44.83
2022-09-06T18:19:15.779Z,45.54
2022-09-06T18:21:42.991Z,44.89
2022-09-06T18:24:10.576Z,45.14
2022-09-06T18:26:37.843Z,44.73
2022-09-06T18:29:12.175Z,44.70
2022-09-06T18:31:39.829Z,45.37
2022-09-06T18:34:08.010Z,45.29
2022-09-06T18:36:35.513Z,45.04
2022-09-06T18:39:04.905Z,45.44
2022-09-06T18:41:52.130Z,48.04
2022-09-06T18:44:19.657Z,45.77
2022-09-06T18:46:47.262Z,45.88
2022-09-06T18:49:15.652Z,49.64
2022-09-06T18:51:43.506Z,46.58
2022-09-06T18:54:11.223Z,45.63
2022-09-06T18:56:38.793Z,46.83
2022-09-06T18:59:06.586Z,46.18
2022-09-06T19:04:21.916Z,46.19
2022-09-06T19:06:48.969Z,46.61
2022-09-06T19:06:57.317Z,47.27
2022-09-06T19:09:17.302Z,46.74
2022-09-06T19:11:47.085Z,47.07
2022-09-06T19:14:14.534Z,47.23
2022-09-06T19:16:42.286Z,47.06
2022-09-06T19:19:11.892Z,47.57
2022-09-06T19:21:42.028Z,49.04
2022-09-06T19:24:11.175Z,48.72
2022-09-06T19:26:41.837Z,48.14
2022-09-06T19:29:13.616Z,48.53
2022-09-06T19:31:41.390Z,49.02
2022-09-06T19:34:08.619Z,49.17
2022-09-06T19:36:38.688Z,49.53
2022-09-06T19:39:07.603Z,50.14
2022-09-06T19:41:38.372Z,50.60
2022-09-06T19:44:08.742Z,50.29
2022-09-06T19:46:37.481Z,50.51
2022-09-06T19:49:08.293Z,51.29
2022-09-06T19:51:36.806Z,51.66
2022-09-06T19:54:04.303Z,52.29
2022-09-06T19:56:34.399Z,53.29
2022-09-06T19:59:04.439Z,52.95
2022-09-06T20:01:33.485Z,53.30
2022-09-06T20:04:02.958Z,53.20
2022-09-06T20:06:31.034Z,53.05
2022-09-06T20:08:59.590Z,53.11
2022-09-06T20:11:29.388Z,52.65
2022-09-06T20:13:56.724Z,53.08
2022-09-06T20:16:27.298Z,53.21
2022-09-06T20:18:55.278Z,54.80
2022-09-06T20:21:22.615Z,53.65
2022-09-06T20:23:51.627Z,53.46
2022-09-06T20:26:19.819Z,54.67
2022-09-06T20:28:47.597Z,53.71
2022-09-06T20:31:18.790Z,53.13
2022-09-06T20:33:49.396Z,53.59
2022-09-06T20:36:18.661Z,53.62
2022-09-06T20:38:47.077Z,53.46
2022-09-06T20:41:17.225Z,53.51
2022-09-06T20:43:45.165Z,53.02
2022-09-06T20:46:20.263Z,52.61
2022-09-06T20:48:48.029Z,52.64
2022-09-06T20:51:22.170Z,53.05
2022-09-06T20:53:53.603Z,52.07
2022-09-06T20:56:23.668Z,52.05
2022-09-06T20:58:53.114Z,52.43
2022-09-06T21:01:23.117Z,53.02
2022-09-06T21:03:52.621Z,52.82
2022-09-06T21:06:20.622Z,51.95
2022-09-06T21:08:48.447Z,52.91
2022-09-06T21:11:15.939Z,52.54
2022-09-06T21:13:42.987Z,51.98
2022-09-06T21:16:10.032Z,52.15
2022-09-06T21:18:37.189Z,52.25
2022-09-06T21:21:06.654Z,52.17
2022-09-06T21:23:37.365Z,52.57
2022-09-06T21:26:07.904Z,53.20
2022-09-06T21:28:36.830Z,53.43
2022-09-06T21:31:08.560Z,53.24
2022-09-06T21:33:37.681Z,53.38
2022-09-06T21:36:15.916Z,53.07
2022-09-06T21:38:45.542Z,53.31
2022-09-06T21:41:16.658Z,53.25
2022-09-06T21:43:44.387Z,53.56
2022-09-06T21:46:17.612Z,52.90
2022-09-06T21:48:50.002Z,52.87
2022-09-06T21:51:19.746Z,53.21
2022-09-06T21:54:06.131Z,54.07
2022-09-06T21:56:34.893Z,52.94
2022-09-06T21:59:02.694Z,53.73
2022-09-06T22:01:32.127Z,52.29
2022-09-06T22:04:00.267Z,52.10
2022-09-06T22:06:29.290Z,51.70
2022-09-06T22:08:57.819Z,52.01
2022-09-06T22:11:27.699Z,51.94
2022-09-06T22:13:58.720Z,52.74
2022-09-06T22:16:26.946Z,53.04
2022-09-06T22:18:54.311Z,52.30
2022-09-06T22:21:22.203Z,52.99
2022-09-06T22:23:54.036Z,53.47
2022-09-06T22:26:21.714Z,53.71
2022-09-06T22:28:53.649Z,53.89
2022-09-06T22:31:20.940Z,54.64
2022-09-06T22:33:47.983Z,54.71
2022-09-06T22:36:14.993Z,54.89
2022-09-06T22:38:42.016Z,55.29
2022-09-06T22:41:09.540Z,55.72
2022-09-06T22:43:36.548Z,56.05
2022-09-06T22:46:13.280Z,56.03
2022-09-06T22:48:40.567Z,55.82
2022-09-06T22:51:07.683Z,56.32
2022-09-06T22:53:35.588Z,56.45
2022-09-06T22:56:03.118Z,56.61
2022-09-06T22:58:30.288Z,56.89
2022-09-06T23:00:57.514Z,56.68
2022-09-06T23:03:24.825Z,57.03
2022-09-06T23:05:52.001Z,57.83
2022-09-06T23:08:18.982Z,58.08
2022-09-06T23:10:45.964Z,58.20
2022-09-06T23:13:12.944Z,58.65
2022-09-06T23:15:46.324Z,58.83
2022-09-06T23:18:14.259Z,58.92
2022-09-06T23:20:41.238Z,59.28
2022-09-06T23:23:08.804Z,59.47
2022-09-06T23:25:39.452Z,59.50
2022-09-06T23:28:07.070Z,59.79
2022-09-06T23:30:37.755Z,60.79
2022-09-06T23:33:04.931Z,61.32
2022-09-06T23:35:32.077Z,61.87
2022-09-06T23:37:59.323Z,62.25
2022-09-06T23:40:26.479Z,62.60
2022-09-06T23:42:53.678Z,62.69
2022-09-06T23:45:20.668Z,63.55
2022-09-06T23:47:47.722Z,63.80
2022-09-06T23:50:15.392Z,64.31
2022-09-06T23:52:42.468Z,64.58
2022-09-06T23:55:09.801Z,65.07
2022-09-06T23:57:37.116Z,65.20
